Time;durP1;ratioP1;P1;durP2;ratioP2;P2;SDS_P1;SDS_P2;PMS_P1;PMS_P2;Temp;Humidity;BMP_temperature;BMP_pressure;BME280_temperature;BME280_humidity;BME280_pressure;Samples;Min_cycle;Max_cycle;Signal;HPM_P1;HPM_P2
2022/09/07 00:02:15;;;;;;;7.50;4.00;;;;;;;;;;5031610;28;20422;-71
2022/09/07 00:04:45;;;;;;;6.35;2.97;;;;;;;;;;5031004;28;20057;-71
2022/09/07 00:07:15;;;;;;;7.10;3.13;;;;;;;;;;5031248;28;20150;-71
2022/09/07 00:09:45;;;;;;;7.55;3.10;;;;;;;;;;5031166;28;20080;-71
2022/09/07 00:12:15;;;;;;;8.45;3.60;;;;;;;;;;5020155;28;20058;-71
2022/09/07 00:14:45;;;;;;;7.82;3.25;;;;;;;;;;5031216;28;20100;-69
2022/09/07 00:17:15;;;;;;;8.73;3.40;;;;;;;;;;5030538;28;20065;-71
2022/09/07 00:19:45;;;;;;;7.60;3.35;;;;;;;;;;5030928;28;20049;-71
2022/09/07 00:22:15;;;;;;;7.95;3.70;;;;;;;;;;5031164;28;20529;-70
2022/09/07 00:24:46;;;;;;;8.70;3.25;;;;;;;;;;5031180;28;20065;-65
2022/09/07 00:27:16;;;;;;;7.50;3.25;;;;;;;;;;5031005;28;20053;-70
2022/09/07 00:29:46;;;;;;;8.40;3.15;;;;;;;;;;4997958;28;20496;-71
2022/09/07 00:32:16;;;;;;;6.90;3.03;;;;;;;;;;5047056;28;20053;-69
2022/09/07 00:34:46;;;;;;;8.85;3.65;;;;;;;;;;5030788;28;20053;-70
2022/09/07 00:37:16;;;;;;;9.07;3.22;;;;;;;;;;5039097;28;20044;-70
2022/09/07 00:39:48;;;;;;;9.40;3.50;;;;;;;;;;5050718;28;20052;-71
2022/09/07 00:42:21;;;;;;;6.90;3.40;;;;;;;;;;5055278;28;20638;-71
2022/09/07 00:45:05;;;;;;;7.55;3.05;;;;;;;;;;5070471;28;20051;-71
2022/09/07 00:48:03;;;;;;;6.80;3.35;;;;;;;;;;5037243;28;20085;-72
2022/09/07 00:50:38;;;;;;;8.73;3.40;;;;;;;;;;5020517;28;20048;-71
2022/09/07 00:53:20;;;;;;;9.18;3.55;;;;;;;;;;5053902;28;20044;-72
2022/09/07 00:55:52;;;;;;;8.57;3.50;;;;;;;;;;5037344;28;20440;-71
2022/09/07 00:58:24;;;;;;;7.60;3.38;;;;;;;;;;5053134;28;20044;-71
2022/09/07 01:00:55;;;;;;;7.00;2.92;;;;;;;;;;5029895;28;20045;-71
2022/09/07 01:03:31;;;;;;;6.55;3.30;;;;;;;;;;5029966;28;20230;-68
2022/09/07 01:06:20;;;;;;;7.32;3.67;;;;;;;;;;5029922;28;20050;-70
2022/09/07 01:08:51;;;;;;;8.77;3.80;;;;;;;;;;5029981;28;20053;-70
2022/09/07 01:11:22;;;;;;;9.32;3.47;;;;;;;;;;5013713;28;20056;-70
2022/09/07 01:13:54;;;;;;;6.80;3.22;;;;;;;;;;5029601;28;20057;-70
2022/09/07 01:16:54;;;;;;;9.23;3.67;;;;;;;;;;5013879;28;20056;-70
2022/09/07 01:20:01;;;;;;;8.00;3.83;;;;;;;;;;4981023;28;20053;-70
2022/09/07 01:22:37;;;;;;;7.88;2.85;;;;;;;;;;5029783;28;20169;-69
2022/09/07 01:25:10;;;;;;;6.80;3.42;;;;;;;;;;5029841;28;20493;-70
2022/09/07 01:28:17;;;;;;;6.47;3.53;;;;;;;;;;5013645;28;20108;-70
2022/09/07 01:31:19;;;;;;;7.53;3.00;;;;;;;;;;5012805;28;20053;-70
2022/09/07 01:34:09;;;;;;;8.80;3.33;;;;;;;;;;5029808;28;20057;-69
2022/09/07 01:37:17;;;;;;;8.93;3.42;;;;;;;;;;5029546;28;20053;-69
2022/09/07 01:39:55;;;;;;;9.43;4.10;;;;;;;;;;5043962;28;20568;-70
2022/09/07 01:42:36;;;;;;;7.97;3.22;;;;;;;;;;5051833;28;20445;-70
2022/09/07 01:45:11;;;;;;;7.20;3.20;;;;;;;;;;5051869;28;20072;-70
2022/09/07 01:47:55;;;;;;;8.15;3.72;;;;;;;;;;5051735;28;20043;-71
2022/09/07 01:50:39;;;;;;;6.72;3.28;;;;;;;;;;5051706;28;20049;-71
2022/09/07 01:53:33;;;;;;;8.80;3.35;;;;;;;;;;5049763;28;20508;-71
2022/09/07 01:56:15;;;;;;;7.80;3.58;;;;;;;;;;5051522;28;20055;-71
2022/09/07 01:58:59;;;;;;;9.93;3.67;;;;;;;;;;5051565;28;20048;-70
2022/09/07 02:01:44;;;;;;;6.93;3.28;;;;;;;;;;5051542;28;20037;-71
2022/09/07 02:04:27;;;;;;;6.43;3.10;;;;;;;;;;5052479;28;20067;-70
2022/09/07 02:07:05;;;;;;;8.70;3.60;;;;;;;;;;5071666;28;20053;-72
2022/09/07 02:09:55;;;;;;;8.35;3.13;;;;;;;;;;5071502;28;20052;-72
2022/09/07 02:12:47;;;;;;;7.15;3.35;;;;;;;;;;5071758;28;20055;-71
2022/09/07 02:15:23;;;;;;;8.10;3.42;;;;;;;;;;5071381;28;20043;-72
2022/09/07 02:18:00;;;;;;;7.95;3.45;;;;;;;;;;5071252;28;20052;-70
2022/09/07 02:20:37;;;;;;;8.93;4.03;;;;;;;;;;5071411;28;20361;-72
2022/09/07 02:23:13;;;;;;;10.85;3.85;;;;;;;;;;5008941;28;20497;-72
2022/09/07 02:25:52;;;;;;;8.77;3.63;;;;;;;;;;5009333;28;20058;-72
2022/09/07 02:28:27;;;;;;;7.70;3.67;;;;;;;;;;5009342;28;20564;-71
2022/09/07 02:30:58;;;;;;;7.57;3.60;;;;;;;;;;5009179;28;20053;-72
2022/09/07 02:33:30;;;;;;;9.75;3.75;;;;;;;;;;5009035;28;20054;-70
2022/09/07 02:36:03;;;;;;;10.57;4.13;;;;;;;;;;5009380;28;20053;-72
2022/09/07 02:38:34;;;;;;;8.75;4.10;;;;;;;;;;4989425;28;20058;-71
2022/09/07 02:41:05;;;;;;;8.27;3.92;;;;;;;;;;4991498;28;20054;-71
2022/09/07 02:43:37;;;;;;;8.73;4.07;;;;;;;;;;4993342;28;20063;-72
2022/09/07 02:46:26;;;;;;;8.38;3.78;;;;;;;;;;4993427;28;20513;-70
2022/09/07 02:49:19;;;;;;;9.35;4.13;;;;;;;;;;4993448;28;20089;-71
2022/09/07 02:52:27;;;;;;;7.97;3.80;;;;;;;;;;4944975;28;20050;-71
2022/09/07 02:55:06;;;;;;;9.10;4.07;;;;;;;;;;4949543;28;20055;-72
2022/09/07 02:57:58;;;;;;;8.48;3.67;;;;;;;;;;4973809;28;20494;-72
2022/09/07 03:00:34;;;;;;;8.70;3.88;;;;;;;;;;4973822;28;20054;-72
2022/09/07 03:03:15;;;;;;;7.32;3.67;;;;;;;;;;4973689;28;20055;-72
2022/09/07 03:05:48;;;;;;;9.88;4.13;;;;;;;;;;4973665;28;20051;-71
2022/09/07 03:08:25;;;;;;;9.45;4.30;;;;;;;;;;4957860;28;20057;-72
2022/09/07 03:10:57;;;;;;;8.52;4.07;;;;;;;;;;4954136;29;20055;-72
2022/09/07 03:13:29;;;;;;;8.63;3.78;;;;;;;;;;4954124;29;20051;-70
2022/09/07 03:15:59;;;;;;;10.52;4.15;;;;;;;;;;4953887;29;20062;-72
2022/09/07 03:18:30;;;;;;;7.35;3.75;;;;;;;;;;4954028;29;20051;-72
2022/09/07 03:21:00;;;;;;;7.50;3.80;;;;;;;;;;4954157;29;20064;-73
2022/09/07 03:23:30;;;;;;;8.40;3.65;;;;;;;;;;4953970;29;20059;-73
2022/09/07 03:26:00;;;;;;;8.82;4.07;;;;;;;;;;4954029;29;20103;-72
2022/09/07 03:28:30;;;;;;;9.88;4.35;;;;;;;;;;4937773;29;20719;-72
2022/09/07 03:31:01;;;;;;;8.50;3.72;;;;;;;;;;4938098;28;20063;-73
2022/09/07 03:33:32;;;;;;;8.93;3.90;;;;;;;;;;4992340;28;20065;-72
2022/09/07 03:36:03;;;;;;;9.30;3.95;;;;;;;;;;4992713;28;20470;-72
2022/09/07 03:38:34;;;;;;;8.00;3.88;;;;;;;;;;4972697;28;20062;-72
2022/09/07 03:41:06;;;;;;;9.50;4.35;;;;;;;;;;4972978;28;20046;-72
2022/09/07 03:43:37;;;;;;;9.55;3.97;;;;;;;;;;4972746;28;20058;-72
2022/09/07 03:46:09;;;;;;;10.05;4.32;;;;;;;;;;4972831;28;20063;-72
2022/09/07 03:48:39;;;;;;;8.43;4.10;;;;;;;;;;4993609;28;20054;-71
2022/09/07 03:51:10;;;;;;;9.43;3.95;;;;;;;;;;4992002;28;20050;-72
2022/09/07 03:53:43;;;;;;;9.52;4.65;;;;;;;;;;4974856;28;20046;-70
2022/09/07 03:56:20;;;;;;;11.35;3.95;;;;;;;;;;4992168;28;20077;-72
2022/09/07 03:58:50;;;;;;;8.88;4.28;;;;;;;;;;4991690;28;20411;-72
2022/09/07 04:01:23;;;;;;;9.27;4.35;;;;;;;;;;4992017;28;20062;-71
2022/09/07 04:03:57;;;;;;;9.30;4.50;;;;;;;;;;4991380;28;20061;-72
2022/09/07 04:06:31;;;;;;;8.45;4.20;;;;;;;;;;4992035;28;20066;-72
2022/09/07 04:09:06;;;;;;;10.93;4.22;;;;;;;;;;4975676;28;20062;-72
2022/09/07 04:11:36;;;;;;;9.32;3.83;;;;;;;;;;4991902;28;20050;-71
2022/09/07 04:14:08;;;;;;;9.82;3.63;;;;;;;;;;4991476;28;20050;-72
2022/09/07 04:16:38;;;;;;;8.45;3.42;;;;;;;;;;4972005;28;20058;-71
2022/09/07 04:19:09;;;;;;;8.50;3.95;;;;;;;;;;4940035;28;20047;-70
2022/09/07 04:21:39;;;;;;;7.35;3.80;;;;;;;;;;4972141;28;20059;-72
2022/09/07 04:24:09;;;;;;;9.57;4.22;;;;;;;;;;4972244;28;20054;-71
2022/09/07 04:26:42;;;;;;;9.77;4.53;;;;;;;;;;4952438;29;20047;-72
2022/09/07 04:29:12;;;;;;;9.95;4.38;;;;;;;;;;4937419;29;20051;-70
2022/09/07 04:31:42;;;;;;;8.73;4.28;;;;;;;;;;4952696;29;20527;-73
2022/09/07 04:34:13;;;;;;;10.70;4.25;;;;;;;;;;4952654;29;20066;-71
2022/09/07 04:36:43;;;;;;;7.53;3.83;;;;;;;;;;4975785;28;20058;-71
2022/09/07 04:39:13;;;;;;;8.77;4.00;;;;;;;;;;4991281;28;20062;-72
2022/09/07 04:41:43;;;;;;;10.50;4.35;;;;;;;;;;4959480;28;20486;-72
2022/09/07 04:44:13;;;;;;;10.30;4.25;;;;;;;;;;5003241;28;20057;-71
2022/09/07 04:46:45;;;;;;;9.13;4.15;;;;;;;;;;4959266;28;20050;-71
2022/09/07 04:49:15;;;;;;;9.57;4.38;;;;;;;;;;5030511;28;20049;-71
2022/09/07 04:51:46;;;;;;;11.05;4.65;;;;;;;;;;5030721;28;20528;-71
2022/09/07 04:54:15;;;;;;;9.55;4.30;;;;;;;;;;4980947;28;20053;-71
2022/09/07 04:56:45;;;;;;;10.50;4.57;;;;;;;;;;4997301;28;20441;-71
2022/09/07 04:59:15;;;;;;;9.70;4.60;;;;;;;;;;4997291;28;20547;-71
2022/09/07 05:01:45;;;;;;;10.77;3.97;;;;;;;;;;5030281;28;20058;-70
2022/09/07 05:04:15;;;;;;;12.48;4.32;;;;;;;;;;4986509;28;20054;-70
2022/09/07 05:06:45;;;;;;;10.77;4.40;;;;;;;;;;4997146;28;20062;-70
2022/09/07 05:09:15;;;;;;;11.60;4.38;;;;;;;;;;5029960;28;20717;-70
2022/09/07 05:11:45;;;;;;;10.13;4.65;;;;;;;;;;5030228;28;20436;-71
2022/09/07 05:14:16;;;;;;;10.20;4.57;;;;;;;;;;4973884;28;20501;-70
2022/09/07 05:16:45;;;;;;;9.70;4.07;;;;;;;;;;4990704;28;20057;-70
2022/09/07 05:19:16;;;;;;;11.10;4.30;;;;;;;;;;4974782;28;20062;-71
2022/09/07 05:21:46;;;;;;;10.13;5.00;;;;;;;;;;4972500;28;20439;-70
2022/09/07 05:24:16;;;;;;;9.35;4.55;;;;;;;;;;4951845;28;20070;-69
2022/09/07 05:26:45;;;;;;;10.57;4.05;;;;;;;;;;4951856;28;20444;-71
2022/09/07 05:29:15;;;;;;;9.85;4.40;;;;;;;;;;4916437;29;20507;-71
2022/09/07 05:32:06;;;;;;;9.75;4.00;;;;;;;;;;4900441;29;20052;-70
2022/09/07 05:34:36;;;;;;;9.55;4.13;;;;;;;;;;4913495;29;20056;-71
2022/09/07 05:37:06;;;;;;;10.07;4.28;;;;;;;;;;4951529;28;20132;-70
2022/09/07 05:39:36;;;;;;;9.10;3.88;;;;;;;;;;4970474;28;20050;-70
2022/09/07 05:42:06;;;;;;;8.60;4.15;;;;;;;;;;4970846;28;20062;-69
2022/09/07 05:44:37;;;;;;;9.13;4.05;;;;;;;;;;4938505;28;20059;-69
2022/09/07 05:47:10;;;;;;;9.02;4.25;;;;;;;;;;4970914;28;20062;-70
2022/09/07 05:49:40;;;;;;;10.15;5.05;;;;;;;;;;4989707;28;20065;-69
2022/09/07 05:52:10;;;;;;;10.85;4.38;;;;;;;;;;4990189;28;20418;-70
2022/09/07 05:54:40;;;;;;;9.00;4.20;;;;;;;;;;4957676;28;20102;-70
2022/09/07 05:57:12;;;;;;;12.07;4.63;;;;;;;;;;4990050;28;20054;-70
2022/09/07 05:59:43;;;;;;;12.73;6.20;;;;;;;;;;4990120;28;20461;-69
2022/09/07 06:02:14;;;;;;;9.18;4.40;;;;;;;;;;4977390;28;20061;-68
2022/09/07 06:04:46;;;;;;;8.93;4.35;;;;;;;;;;4970476;28;20054;-69
2022/09/07 06:07:16;;;;;;;9.57;4.88;;;;;;;;;;4970201;28;20055;-70
2022/09/07 06:09:51;;;;;;;9.98;4.45;;;;;;;;;;4991332;28;20066;-65
2022/09/07 06:12:45;;;;;;;9.60;4.13;;;;;;;;;;5009563;28;20046;-69
2022/09/07 06:15:17;;;;;;;10.55;4.70;;;;;;;;;;5013305;28;20060;-71
2022/09/07 06:17:47;;;;;;;9.23;4.15;;;;;;;;;;5055754;28;20052;-70
2022/09/07 06:20:18;;;;;;;18.95;4.95;;;;;;;;;;5006113;28;20060;-70
2022/09/07 06:22:48;;;;;;;11.02;4.57;;;;;;;;;;5055783;28;20056;-68
2022/09/07 06:25:18;;;;;;;9.90;4.45;;;;;;;;;;5055707;28;20041;-69
2022/09/07 06:27:49;;;;;;;10.88;4.47;;;;;;;;;;5069480;28;20052;-69
2022/09/07 06:30:20;;;;;;;11.75;4.55;;;;;;;;;;5035340;28;20049;-70
2022/09/07 06:32:51;;;;;;;10.55;4.75;;;;;;;;;;5035504;28;20453;-70
2022/09/07 06:35:20;;;;;;;9.38;4.22;;;;;;;;;;5035547;28;20060;-70
2022/09/07 06:37:50;;;;;;;9.13;4.40;;;;;;;;;;4979392;28;20050;-70
2022/09/07 06:40:21;;;;;;;12.07;4.47;;;;;;;;;;4996041;28;20061;-71
2022/09/07 06:42:52;;;;;;;9.32;4.50;;;;;;;;;;4996227;28;20054;-70
2022/09/07 06:45:22;;;;;;;9.07;4.32;;;;;;;;;;5012181;28;20494;-71
2022/09/07 06:47:53;;;;;;;10.15;4.60;;;;;;;;;;4995990;28;20600;-69
2022/09/07 06:50:26;;;;;;;13.25;4.75;;;;;;;;;;4996080;28;20058;-71
2022/09/07 06:52:57;;;;;;;10.05;4.85;;;;;;;;;;4996259;28;20053;-70
2022/09/07 06:55:47;;;;;;;9.27;4.25;;;;;;;;;;4976134;28;20169;-70
2022/09/07 06:58:18;;;;;;;9.30;4.82;;;;;;;;;;4976720;28;20526;-71
2022/09/07 07:00:47;;;;;;;9.30;4.63;;;;;;;;;;4959868;28;20050;-71
2022/09/07 07:03:18;;;;;;;11.55;4.70;;;;;;;;;;4976588;28;20494;-71
2022/09/07 07:05:52;;;;;;;11.40;4.75;;;;;;;;;;4991743;28;20134;-70
2022/09/07 07:08:25;;;;;;;10.45;4.82;;;;;;;;;;5028612;28;20420;-71
2022/09/07 07:10:55;;;;;;;;;;;;;;;;;;5035759;28;20064;-71
2022/09/07 07:13:25;;;;;;;10.68;4.63;;;;;;;;;;5019190;28;19921;-71
2022/09/07 07:16:10;;;;;;;11.15;4.50;;;;;;;;;;4956560;28;20674;-70
2022/09/07 07:18:42;;;;;;;9.40;4.18;;;;;;;;;;4925132;28;20047;-71
2022/09/07 07:21:14;;;;;;;9.48;4.53;;;;;;;;;;4956828;28;20059;-72
2022/09/07 07:23:49;;;;;;;11.18;5.03;;;;;;;;;;4918663;29;20528;-71
2022/09/07 07:26:25;;;;;;;10.73;4.50;;;;;;;;;;4903332;29;20431;-72
2022/09/07 07:28:56;;;;;;;10.45;4.95;;;;;;;;;;4933862;29;20056;-71
2022/09/07 07:31:28;;;;;;;10.93;5.28;;;;;;;;;;4934859;29;20051;-70
2022/09/07 07:33:59;;;;;;;10.45;5.03;;;;;;;;;;4934704;29;20534;-72
2022/09/07 07:36:29;;;;;;;12.73;5.60;;;;;;;;;;4934453;29;20052;-71
2022/09/07 07:38:59;;;;;;;10.82;4.80;;;;;;;;;;4934455;29;20104;-72
2022/09/07 07:41:31;;;;;;;10.88;4.70;;;;;;;;;;4918571;29;20090;-71
2022/09/07 07:44:22;;;;;;;12.10;4.53;;;;;;;;;;4947050;28;20059;-70
2022/09/07 07:46:52;;;;;;;11.70;5.15;;;;;;;;;;4941881;28;20059;-71
2022/09/07 07:49:23;;;;;;;13.20;4.75;;;;;;;;;;4972874;28;20054;-69
2022/09/07 07:51:55;;;;;;;11.52;4.63;;;;;;;;;;4972871;28;20061;-71
2022/09/07 07:54:46;;;;;;;8.60;3.63;;;;;;;;;;4992136;28;20058;-70
2022/09/07 07:57:18;;;;;;;12.55;4.72;;;;;;;;;;4992400;28;20050;-70
2022/09/07 07:59:48;;;;;;;12.77;5.03;;;;;;;;;;4999539;28;20057;-70
2022/09/07 08:02:18;;;;;;;10.93;5.13;;;;;;;;;;5028972;28;20058;-69
2022/09/07 08:04:48;;;;;;;9.60;4.65;;;;;;;;;;5031088;28;20060;-70
2022/09/07 08:07:19;;;;;;;12.13;5.32;;;;;;;;;;4994885;28;20053;-70
2022/09/07 08:09:49;;;;;;;11.95;5.78;;;;;;;;;;5011487;28;20061;-70
2022/09/07 08:12:19;;;;;;;11.88;5.80;;;;;;;;;;4979868;28;20066;-70
2022/09/07 08:14:54;;;;;;;10.30;4.78;;;;;;;;;;4980661;28;20057;-70
2022/09/07 08:17:24;;;;;;;11.93;5.55;;;;;;;;;;5011198;28;20058;-70
2022/09/07 08:19:54;;;;;;;12.98;5.25;;;;;;;;;;5030728;28;20052;-70
2022/09/07 08:22:24;;;;;;;10.10;4.97;;;;;;;;;;5031248;28;20057;-70
2022/09/07 08:24:57;;;;;;;11.57;4.95;;;;;;;;;;5030841;28;20053;-70
2022/09/07 08:27:27;;;;;;;13.73;4.93;;;;;;;;;;5031113;28;20068;-68
2022/09/07 08:29:57;;;;;;;13.27;5.55;;;;;;;;;;5031026;28;20158;-70
2022/09/07 08:32:30;;;;;;;10.85;5.43;;;;;;;;;;5031046;28;20425;-73
2022/09/07 08:35:01;;;;;;;11.80;5.22;;;;;;;;;;5030825;28;20052;-73
2022/09/07 08:37:31;;;;;;;12.75;5.25;;;;;;;;;;5030828;28;20061;-74
2022/09/07 08:40:02;;;;;;;12.13;5.43;;;;;;;;;;5030445;28;20056;-74
2022/09/07 08:42:35;;;;;;;11.55;5.50;;;;;;;;;;5030815;28;20046;-73
2022/09/07 08:45:13;;;;;;;15.15;5.72;;;;;;;;;;5041545;28;20061;-73
2022/09/07 08:47:51;;;;;;;11.13;5.38;;;;;;;;;;5050587;28;20052;-70
2022/09/07 08:50:47;;;;;;;10.70;4.40;;;;;;;;;;5050537;28;20061;-70
2022/09/07 08:53:19;;;;;;;9.65;4.57;;;;;;;;;;5050314;28;20060;-69
2022/09/07 08:56:02;;;;;;;13.18;5.63;;;;;;;;;;5070169;28;20495;-70
2022/09/07 08:58:52;;;;;;;12.43;5.30;;;;;;;;;;5038616;28;20047;-69
2022/09/07 09:01:31;;;;;;;12.63;5.15;;;;;;;;;;5070436;28;20427;-70
2022/09/07 09:04:26;;;;;;;12.05;5.75;;;;;;;;;;5070180;28;20052;-69
2022/09/07 09:07:21;;;;;;;11.80;5.65;;;;;;;;;;5020504;28;20060;-69
2022/09/07 09:10:18;;;;;;;10.80;5.20;;;;;;;;;;5037008;28;20052;-70
2022/09/07 09:13:02;;;;;;;10.90;5.22;;;;;;;;;;5070150;28;20060;-70
2022/09/07 09:15:57;;;;;;;11.50;5.03;;;;;;;;;;5049691;28;20049;-71
2022/09/07 09:18:38;;;;;;;11.15;5.20;;;;;;;;;;5050036;28;20476;-69
2022/09/07 09:21:17;;;;;;;10.93;5.07;;;;;;;;;;5050026;28;20048;-71
2022/09/07 09:23:52;;;;;;;12.20;5.38;;;;;;;;;;5050093;28;20079;-68
2022/09/07 09:26:30;;;;;;;12.70;5.45;;;;;;;;;;5033215;28;20086;-68
2022/09/07 09:29:20;;;;;;;13.50;6.13;;;;;;;;;;4984576;28;20052;-70
2022/09/07 09:31:52;;;;;;;10.75;5.13;;;;;;;;;;5009732;28;20057;-67
2022/09/07 09:34:22;;;;;;;10.43;4.65;;;;;;;;;;4977049;28;20053;-68
2022/09/07 09:36:59;;;;;;;10.38;5.13;;;;;;;;;;4957950;28;20062;-69
2022/09/07 09:39:38;;;;;;;11.75;5.43;;;;;;;;;;5022630;28;20077;-70
2022/09/07 09:42:15;;;;;;;12.38;5.80;;;;;;;;;;4990189;28;20517;-74
2022/09/07 09:44:46;;;;;;;12.77;5.35;;;;;;;;;;4990523;28;20510;-75
2022/09/07 09:47:30;;;;;;;15.13;5.82;;;;;;;;;;4990167;28;20192;-70
2022/09/07 09:50:07;;;;;;;11.30;5.00;;;;;;;;;;4989480;28;20073;-69
2022/09/07 09:52:38;;;;;;;11.90;5.55;;;;;;;;;;4995414;28;20457;-70
2022/09/07 09:55:32;;;;;;;12.18;5.55;;;;;;;;;;4995157;28;20046;-70
2022/09/07 09:58:05;;;;;;;;;;;;;;;;;;4962499;28;20494;-73
2022/09/07 10:01:00;;;;;;;13.38;6.32;;;;;;;;;;5029247;28;19937;-74
2022/09/07 10:03:51;;;;;;;14.98;6.43;;;;;;;;;;5009074;28;20050;-68
2022/09/07 10:06:22;;;;;;;17.58;7.13;;;;;;;;;;5009677;28;20058;-75
2022/09/07 10:09:01;;;;;;;12.07;6.20;;;;;;;;;;4984559;28;20514;-72
2022/09/07 10:11:49;;;;;;;12.80;6.07;;;;;;;;;;4969872;28;20507;-72
2022/09/07 10:14:43;;;;;;;14.43;6.53;;;;;;;;;;4970432;28;20050;-71
2022/09/07 10:17:29;;;;;;;13.98;6.00;;;;;;;;;;4970687;28;20058;-72
2022/09/07 10:20:03;;;;;;;12.20;6.05;;;;;;;;;;4970810;28;20058;-72
2022/09/07 10:22:39;;;;;;;16.23;7.50;;;;;;;;;;4970425;28;20062;-70
2022/09/07 10:25:32;;;;;;;13.00;6.10;;;;;;;;;;4970520;28;20051;-71
2022/09/07 10:28:14;;;;;;;15.93;6.20;;;;;;;;;;4970292;28;20059;-72
2022/09/07 10:31:09;;;;;;;15.73;7.38;;;;;;;;;;4951023;28;20099;-74
2022/09/07 10:34:25;;;;;;;18.05;9.15;;;;;;;;;;4951207;28;20064;-69
2022/09/07 10:37:10;;;;;;;14.13;6.60;;;;;;;;;;4970457;28;20059;-71
2022/09/07 10:39:42;;;;;;;14.35;6.82;;;;;;;;;;4950882;29;20055;-75
2022/09/07 10:42:18;;;;;;;15.68;7.32;;;;;;;;;;4934859;29;20047;-75
2022/09/07 10:45:06;;;;;;;15.07;7.20;;;;;;;;;;4951002;29;20043;-73
2022/09/07 10:48:07;;;;;;;13.80;7.40;;;;;;;;;;4987801;28;20050;-70
2022/09/07 10:51:03;;;;;;;13.88;6.70;;;;;;;;;;4989867;28;20050;-70
2022/09/07 10:53:56;;;;;;;12.30;6.60;;;;;;;;;;4989781;28;20502;-72
2022/09/07 10:57:01;;;;;;;14.75;7.15;;;;;;;;;;4989696;28;20152;-73
2022/09/07 10:59:44;;;;;;;15.18;6.93;;;;;;;;;;4973237;28;20058;-71
2022/09/07 11:03:01;;;;;;;13.95;6.30;;;;;;;;;;4992001;28;20367;-69
2022/09/07 11:06:03;;;;;;;;;;;;;;;;;;5019092;28;20069;-75
2022/09/07 11:08:53;;;;;;;16.70;6.60;;;;;;;;;;5032552;28;19921;-74
2022/09/07 11:12:00;;;;;;;15.07;7.20;;;;;;;;;;5032514;28;20421;-72
2022/09/07 11:15:26;;;;;;;15.82;7.13;;;;;;;;;;5052400;28;20053;-71
2022/09/07 11:18:07;;;;;;;13.25;6.13;;;;;;;;;;4940774;28;20061;-70
2022/09/07 11:20:57;;;;;;;15.23;7.05;;;;;;;;;;4973453;28;20082;-69
2022/09/07 11:23:54;;;;;;;13.68;6.60;;;;;;;;;;4973598;28;20110;-69
2022/09/07 11:27:12;;;;;;;13.68;6.10;;;;;;;;;;4973398;28;20046;-69
2022/09/07 11:30:21;;;;;;;14.30;5.93;;;;;;;;;;4915750;29;20576;-68
2022/09/07 11:32:55;;;;;;;;;;;;;;;;;;4860245;29;20069;-68
2022/09/07 11:35:53;;;;;;;12.63;5.88;;;;;;;;;;4859553;29;19924;-69
2022/09/07 11:38:40;;;;;;;11.65;5.72;;;;;;;;;;4859164;29;20060;-70
2022/09/07 11:41:20;;;;;;;13.95;6.63;;;;;;;;;;4859389;29;20433;-70
2022/09/07 11:44:04;;;;;;;14.60;6.38;;;;;;;;;;4832175;29;20546;-74
2022/09/07 11:46:46;;;;;;;13.52;6.65;;;;;;;;;;4795501;29;20045;-73
2022/09/07 11:49:27;;;;;;;11.82;5.72;;;;;;;;;;4840776;29;20069;-73
2022/09/07 11:52:15;;;;;;;14.35;5.78;;;;;;;;;;4849308;29;20049;-70
2022/09/07 11:54:54;;;;;;;11.88;5.78;;;;;;;;;;4885874;29;20496;-68
2022/09/07 11:57:53;;;;;;;12.30;5.30;;;;;;;;;;4934323;29;20188;-69
2022/09/07 12:00:37;;;;;;;9.85;5.82;;;;;;;;;;4887124;29;20068;-68
2022/09/07 12:03:17;;;;;;;11.25;5.72;;;;;;;;;;4934135;29;20067;-69
2022/09/07 12:06:15;;;;;;;56.20;20.20;;;;;;;;;;4976519;28;20056;-69
2022/09/07 12:09:03;;;;;;;10.68;5.38;;;;;;;;;;5049982;28;20057;-69
2022/09/07 12:12:10;;;;;;;14.75;6.07;;;;;;;;;;5073609;28;20052;-69
2022/09/07 12:14:54;;;;;;;11.77;5.20;;;;;;;;;;5021034;28;20055;-69
2022/09/07 12:17:40;;;;;;;11.55;5.03;;;;;;;;;;5073540;28;20484;-69
2022/09/07 12:20:18;;;;;;;10.25;4.80;;;;;;;;;;5073519;28;20041;-69
2022/09/07 12:23:00;;;;;;;8.77;4.40;;;;;;;;;;5010995;28;20057;-69
2022/09/07 12:25:34;;;;;;;9.90;4.85;;;;;;;;;;4979627;28;20058;-70
2022/09/07 12:28:05;;;;;;;9.02;4.05;;;;;;;;;;5011273;28;20057;-69
2022/09/07 12:30:35;;;;;;;9.10;3.88;;;;;;;;;;5011299;28;20061;-69
2022/09/07 12:33:23;;;;;;;10.43;4.30;;;;;;;;;;4991399;28;20050;-70
2022/09/07 12:35:57;;;;;;;9.25;4.18;;;;;;;;;;4971764;28;20051;-70
2022/09/07 12:38:30;;;;;;;9.52;3.88;;;;;;;;;;4956738;28;20066;-70
2022/09/07 12:41:19;;;;;;;9.18;4.57;;;;;;;;;;4939720;28;20063;-69
2022/09/07 12:44:04;;;;;;;9.38;4.20;;;;;;;;;;4940469;28;20054;-69
2022/09/07 12:46:34;;;;;;;9.82;3.95;;;;;;;;;;4971998;28;20560;-69
2022/09/07 12:49:08;;;;;;;8.85;4.00;;;;;;;;;;4971576;28;20054;-70
2022/09/07 12:51:40;;;;;;;8.43;4.07;;;;;;;;;;4933046;29;20507;-70
2022/09/07 12:54:36;;;;;;;8.75;4.03;;;;;;;;;;4933176;29;20083;-75
2022/09/07 12:57:30;;;;;;;8.30;3.65;;;;;;;;;;4914063;29;20059;-75
2022/09/07 13:00:15;;;;;;;9.82;4.88;;;;;;;;;;4926393;29;20059;-71
2022/09/07 13:03:12;;;;;;;19.30;9.35;;;;;;;;;;4952115;28;20055;-71
2022/09/07 13:06:24;;;;;;;13.57;6.03;;;;;;;;;;4965051;28;20059;-71
2022/09/07 13:09:35;;;;;;;15.10;7.22;;;;;;;;;;4951983;28;20062;-72
2022/09/07 13:12:29;;;;;;;13.32;6.80;;;;;;;;;;4952208;28;20062;-72
2022/09/07 13:15:47;;;;;;;16.50;7.45;;;;;;;;;;4971402;28;20537;-71
2022/09/07 13:18:26;;;;;;;12.63;5.90;;;;;;;;;;4971388;28;20054;-71
2022/09/07 13:21:08;;;;;;;10.73;4.85;;;;;;;;;;4970995;28;20055;-73
2022/09/07 13:23:48;;;;;;;14.70;7.05;;;;;;;;;;4971170;28;20066;-73
2022/09/07 13:26:56;;;;;;;11.77;5.55;;;;;;;;;;4976417;28;20054;-74
2022/09/07 13:29:45;;;;;;;14.35;5.30;;;;;;;;;;5020854;28;20077;-73
2022/09/07 13:32:30;;;;;;;9.20;4.47;;;;;;;;;;5013662;28;20045;-73
2022/09/07 13:35:25;;;;;;;9.93;4.07;;;;;;;;;;5061116;28;20680;-72
2022/09/07 13:38:03;;;;;;;9.05;4.18;;;;;;;;;;5032936;28;20041;-74
2022/09/07 13:40:38;;;;;;;9.15;4.18;;;;;;;;;;5049659;28;20160;-74
2022/09/07 13:43:15;;;;;;;7.75;3.75;;;;;;;;;;5069137;28;20404;-74
2022/09/07 13:45:55;;;;;;;7.68;3.45;;;;;;;;;;5003773;28;20044;-71
2022/09/07 13:48:45;;;;;;;8.80;3.95;;;;;;;;;;5069454;28;20071;-74
2022/09/07 13:51:49;;;;;;;10.38;4.68;;;;;;;;;;5029101;28;20045;-75
2022/09/07 13:55:04;;;;;;;13.85;6.50;;;;;;;;;;5013231;28;20046;-74
2022/09/07 13:58:06;;;;;;;16.85;7.43;;;;;;;;;;5029407;28;20065;-73
2022/09/07 14:00:48;;;;;;;11.90;5.68;;;;;;;;;;4951305;29;20066;-72
2022/09/07 14:03:18;;;;;;;27.45;11.55;;;;;;;;;;4951080;29;20059;-74
2022/09/07 14:05:48;;;;;;;9.88;4.50;;;;;;;;;;4894027;29;20056;-74
2022/09/07 14:08:29;;;;;;;8.77;4.28;;;;;;;;;;4894154;29;20057;-73
2022/09/07 14:11:02;;;;;;;9.13;3.85;;;;;;;;;;4894229;29;20170;-74
2022/09/07 14:13:33;;;;;;;8.23;4.13;;;;;;;;;;4863097;29;20933;-74
2022/09/07 14:16:03;;;;;;;15.68;9.15;;;;;;;;;;4894333;29;20493;-73
2022/09/07 14:18:33;;;;;;;19.88;9.07;;;;;;;;;;4894119;29;20060;-73
2022/09/07 14:21:05;;;;;;;14.10;6.88;;;;;;;;;;4882905;29;20068;-73
2022/09/07 14:23:38;;;;;;;15.10;6.93;;;;;;;;;;4829277;29;20061;-73
2022/09/07 14:26:18;;;;;;;9.32;4.55;;;;;;;;;;4875673;29;20052;-75
2022/09/07 14:28:54;;;;;;;13.57;5.93;;;;;;;;;;4886984;29;20064;-74
2022/09/07 14:31:24;;;;;;;40.78;17.92;;;;;;;;;;4912992;29;20511;-73
2022/09/07 14:33:57;;;;;;;16.67;7.90;;;;;;;;;;4902190;29;20060;-73
2022/09/07 14:36:36;;;;;;;74.82;31.67;;;;;;;;;;4894046;28;20063;-70
2022/09/07 14:39:17;;;;;;;55.13;23.98;;;;;;;;;;4973339;28;20058;-75
2022/09/07 14:41:48;;;;;;;8.73;4.75;;;;;;;;;;4969524;28;20050;-72
2022/09/07 14:44:29;;;;;;;17.00;11.88;;;;;;;;;;5022719;28;20061;-73
2022/09/07 14:47:22;;;;;;;8.95;4.75;;;;;;;;;;5029768;28;20056;-72
2022/09/07 14:50:04;;;;;;;14.48;8.43;;;;;;;;;;5008618;28;20049;-74
2022/09/07 14:52:41;;;;;;;9.30;4.70;;;;;;;;;;5011147;28;20050;-74
2022/09/07 14:55:37;;;;;;;8.00;4.05;;;;;;;;;;5011642;28;20054;-73
2022/09/07 14:58:14;;;;;;;14.27;6.50;;;;;;;;;;4918391;28;20061;-74
2022/09/07 15:00:47;;;;;;;7.05;3.70;;;;;;;;;;4982857;28;20714;-75
2022/09/07 15:03:40;;;;;;;9.48;5.15;;;;;;;;;;4990604;28;20065;-73
2022/09/07 15:06:11;;;;;;;8.48;3.83;;;;;;;;;;4988931;28;20057;-74
2022/09/07 15:09:04;;;;;;;7.68;3.47;;;;;;;;;;4986787;28;20058;-71
2022/09/07 15:11:36;;;;;;;9.05;3.63;;;;;;;;;;4968709;28;20069;-72
2022/09/07 15:14:11;;;;;;;8.48;3.72;;;;;;;;;;5008084;28;20057;-71
2022/09/07 15:16:43;;;;;;;8.13;4.45;;;;;;;;;;5000615;28;20050;-72
2022/09/07 15:19:14;;;;;;;29.98;12.55;;;;;;;;;;5004634;28;20064;-71
2022/09/07 15:21:45;;;;;;;9.45;5.47;;;;;;;;;;5007537;28;20054;-71
2022/09/07 15:24:16;;;;;;;8.63;4.85;;;;;;;;;;5001772;28;20061;-72
2022/09/07 15:26:48;;;;;;;7.40;3.75;;;;;;;;;;5001625;28;20070;-73
2022/09/07 15:29:34;;;;;;;7.07;2.90;;;;;;;;;;5023450;28;20062;-74
2022/09/07 15:32:09;;;;;;;7.25;3.65;;;;;;;;;;5012330;28;20053;-75
2022/09/07 15:34:39;;;;;;;9.65;4.78;;;;;;;;;;5020435;28;20057;-68
2022/09/07 15:37:12;;;;;;;6.45;3.15;;;;;;;;;;5025120;28;20053;-70
2022/09/07 15:40:15;;;;;;;7.35;3.30;;;;;;;;;;5021372;28;20064;-69
2022/09/07 15:42:47;;;;;;;6.43;3.53;;;;;;;;;;5020510;28;20041;-72
2022/09/07 15:45:37;;;;;;;6.07;2.70;;;;;;;;;;5023709;28;20060;-73
2022/09/07 15:48:12;;;;;;;5.65;2.85;;;;;;;;;;5026120;28;20061;-70